Time;durP1;ratioP1;P1;durP2;ratioP2;P2;SDS_P1;SDS_P2;PMS_P1;PMS_P2;Temp;Humidity;BMP_temperature;BMP_pressure;BME280_temperature;BME280_humidity;BME280_pressure;Samples;Min_cycle;Max_cycle;Signal;HPM_P1;HPM_P2
2022/10/30 00:02:06;;;;;;;22.50;13.82;;;;;;;;;;5104998;28;20412;-72
2022/10/30 00:04:32;;;;;;;24.20;13.07;;;;;;;;;;5108420;28;20046;-72
2022/10/30 00:06:58;;;;;;;27.42;13.57;;;;;;;;;;5111279;28;20373;-72
2022/10/30 00:09:24;;;;;;;21.90;12.77;;;;;;;;;;5112760;28;20047;-72
2022/10/30 00:11:50;;;;;;;24.35;12.95;;;;;;;;;;5090245;28;20054;-72
2022/10/30 00:14:17;;;;;;;21.80;12.32;;;;;;;;;;5090221;28;20040;-72
2022/10/30 00:16:43;;;;;;;23.02;13.15;;;;;;;;;;5110942;28;20110;-71
2022/10/30 00:19:09;;;;;;;24.20;12.18;;;;;;;;;;5109929;28;20118;-72
2022/10/30 00:21:35;;;;;;;21.58;11.75;;;;;;;;;;5108172;28;20040;-71
2022/10/30 00:24:01;;;;;;;18.27;10.43;;;;;;;;;;5109538;28;20044;-72
2022/10/30 00:26:27;;;;;;;20.73;11.27;;;;;;;;;;5104562;28;20492;-72
2022/10/30 00:28:54;;;;;;;19.85;10.50;;;;;;;;;;5086397;28;20036;-72
2022/10/30 00:31:20;;;;;;;21.33;11.20;;;;;;;;;;5104790;28;20043;-72
2022/10/30 00:33:50;;;;;;;21.77;11.10;;;;;;;;;;5104680;28;20064;-72
2022/10/30 00:36:16;;;;;;;20.90;11.70;;;;;;;;;;5104361;28;20123;-72
2022/10/30 00:38:41;;;;;;;20.67;11.13;;;;;;;;;;5104114;28;20119;-72
2022/10/30 00:41:12;;;;;;;22.17;11.23;;;;;;;;;;5104425;28;20036;-72
2022/10/30 00:43:39;;;;;;;19.88;11.32;;;;;;;;;;5103160;28;20043;-72
2022/10/30 00:46:20;;;;;;;19.13;10.35;;;;;;;;;;5103322;28;20048;-71
2022/10/30 00:48:49;;;;;;;19.48;10.23;;;;;;;;;;5104486;28;20042;-73
2022/10/30 00:51:15;;;;;;;16.60;10.77;;;;;;;;;;5102896;28;20528;-71
2022/10/30 00:53:42;;;;;;;17.73;10.25;;;;;;;;;;5104728;28;20051;-72
2022/10/30 00:56:09;;;;;;;18.13;10.68;;;;;;;;;;5104370;28;20092;-72
2022/10/30 00:58:42;;;;;;;22.02;10.73;;;;;;;;;;5104545;28;20139;-72
2022/10/30 01:01:11;;;;;;;21.67;10.98;;;;;;;;;;5107004;28;20051;-72
2022/10/30 01:03:38;;;;;;;19.88;11.13;;;;;;;;;;5115681;28;20039;-72
2022/10/30 01:06:07;;;;;;;19.75;10.93;;;;;;;;;;5114629;28;20062;-72
2022/10/30 01:08:33;;;;;;;22.88;11.93;;;;;;;;;;5114865;28;20047;-71
2022/10/30 01:11:01;;;;;;;16.90;10.05;;;;;;;;;;5114838;28;20056;-72
2022/10/30 01:13:28;;;;;;;25.80;11.50;;;;;;;;;;5112772;28;20040;-72
2022/10/30 01:15:54;;;;;;;19.02;10.82;;;;;;;;;;5114422;28;20044;-73
2022/10/30 01:18:23;;;;;;;21.55;10.80;;;;;;;;;;5112245;28;20508;-72
2022/10/30 01:20:49;;;;;;;19.02;10.40;;;;;;;;;;5094592;28;20081;-71
2022/10/30 01:23:28;;;;;;;21.35;10.60;;;;;;;;;;5113631;28;20075;-72
2022/10/30 01:26:05;;;;;;;21.75;11.95;;;;;;;;;;5113613;28;20455;-72
2022/10/30 01:28:40;;;;;;;20.90;11.15;;;;;;;;;;5114221;28;20496;-72
2022/10/30 01:31:21;;;;;;;21.33;11.50;;;;;;;;;;5109568;28;20036;-73
2022/10/30 01:34:09;;;;;;;19.20;11.23;;;;;;;;;;5114978;28;20089;-73
2022/10/30 01:36:35;;;;;;;21.88;11.85;;;;;;;;;;5116111;28;20044;-72
2022/10/30 01:39:03;;;;;;;20.88;11.88;;;;;;;;;;5114701;28;20043;-71
2022/10/30 01:41:29;;;;;;;24.02;12.20;;;;;;;;;;5114016;28;20044;-72
2022/10/30 01:43:57;;;;;;;22.15;11.27;;;;;;;;;;5114437;28;20171;-72
2022/10/30 01:46:39;;;;;;;19.58;10.98;;;;;;;;;;5112783;28;20562;-72
2022/10/30 01:49:23;;;;;;;21.65;11.65;;;;;;;;;;5112425;28;20047;-72
2022/10/30 01:51:49;;;;;;;21.40;11.27;;;;;;;;;;5113985;28;20477;-72
2022/10/30 01:54:32;;;;;;;20.73;11.13;;;;;;;;;;5115418;28;20043;-72
2022/10/30 01:57:01;;;;;;;19.00;11.38;;;;;;;;;;5112552;28;20071;-72
2022/10/30 01:59:27;;;;;;;23.05;11.52;;;;;;;;;;5111014;28;20085;-72
2022/10/30 02:01:53;;;;;;;21.48;11.00;;;;;;;;;;5111068;28;20063;-72
2022/10/30 02:04:19;;;;;;;24.10;11.20;;;;;;;;;;5114549;28;20070;-72
2022/10/30 02:06:45;;;;;;;23.60;11.55;;;;;;;;;;5114931;28;20105;-71
2022/10/30 02:09:11;;;;;;;24.85;10.98;;;;;;;;;;5113974;28;20043;-72
2022/10/30 02:11:38;;;;;;;23.75;10.70;;;;;;;;;;5113702;28;20046;-71
2022/10/30 02:14:05;;;;;;;19.25;9.75;;;;;;;;;;5112341;28;20494;-73
2022/10/30 02:16:34;;;;;;;20.45;10.32;;;;;;;;;;5111708;28;20054;-72
2022/10/30 02:19:01;;;;;;;19.52;10.45;;;;;;;;;;5111949;28;20405;-72
2022/10/30 02:21:27;;;;;;;17.55;10.90;;;;;;;;;;5111660;28;20502;-72
2022/10/30 02:23:53;;;;;;;24.63;11.30;;;;;;;;;;5111709;28;20123;-72
2022/10/30 02:26:19;;;;;;;18.60;9.95;;;;;;;;;;5114685;28;20040;-72
2022/10/30 02:28:45;;;;;;;21.80;10.85;;;;;;;;;;5109640;28;20409;-72
2022/10/30 02:31:11;;;;;;;20.33;10.98;;;;;;;;;;5113933;28;20046;-72
2022/10/30 02:33:37;;;;;;;23.55;10.73;;;;;;;;;;5112309;28;20139;-72
2022/10/30 02:36:03;;;;;;;19.05;11.23;;;;;;;;;;5115267;28;20082;-72
2022/10/30 02:38:30;;;;;;;23.30;11.52;;;;;;;;;;5112983;28;20744;-72
2022/10/30 02:40:57;;;;;;;21.90;11.50;;;;;;;;;;5114849;28;20043;-72
2022/10/30 02:43:23;;;;;;;23.40;11.93;;;;;;;;;;5112786;28;20047;-71
2022/10/30 02:45:50;;;;;;;20.02;11.30;;;;;;;;;;5107353;28;20497;-72
2022/10/30 02:48:16;;;;;;;22.85;11.90;;;;;;;;;;5099818;28;20127;-72
2022/10/30 02:50:42;;;;;;;25.10;11.73;;;;;;;;;;5113062;28;20122;-72
2022/10/30 02:53:08;;;;;;;27.48;11.57;;;;;;;;;;5112188;28;20040;-72
2022/10/30 02:55:34;;;;;;;24.75;12.20;;;;;;;;;;5111534;28;20039;-72
2022/10/30 02:58:00;;;;;;;25.05;11.57;;;;;;;;;;5113036;28;20061;-72
2022/10/30 03:00:26;;;;;;;21.17;11.85;;;;;;;;;;5111264;28;20048;-72
2022/10/30 03:02:56;;;;;;;20.02;12.18;;;;;;;;;;5113071;28;20058;-72
2022/10/30 03:05:22;;;;;;;20.98;11.80;;;;;;;;;;5112361;28;20035;-73
2022/10/30 03:07:48;;;;;;;18.70;11.60;;;;;;;;;;5112942;28;20116;-72
2022/10/30 03:10:14;;;;;;;22.10;11.82;;;;;;;;;;5113836;28;20501;-72
2022/10/30 03:12:40;;;;;;;20.15;10.98;;;;;;;;;;5110278;28;20092;-72
2022/10/30 03:15:06;;;;;;;19.27;10.98;;;;;;;;;;5111985;28;20042;-71
2022/10/30 03:17:32;;;;;;;20.48;11.32;;;;;;;;;;5110625;28;20489;-72
2022/10/30 03:19:58;;;;;;;19.02;11.07;;;;;;;;;;5092321;28;20039;-72
2022/10/30 03:22:24;;;;;;;21.15;11.02;;;;;;;;;;5110593;28;20036;-72
2022/10/30 03:24:50;;;;;;;22.63;11.48;;;;;;;;;;5112189;28;20082;-72
2022/10/30 03:27:16;;;;;;;17.42;11.70;;;;;;;;;;5113427;28;20083;-72
2022/10/30 03:29:42;;;;;;;22.00;11.98;;;;;;;;;;5111393;28;20044;-72
2022/10/30 03:32:09;;;;;;;25.52;12.38;;;;;;;;;;5113490;28;20100;-72
2022/10/30 03:34:35;;;;;;;23.73;11.52;;;;;;;;;;5111549;28;20039;-72
2022/10/30 03:37:02;;;;;;;27.15;12.65;;;;;;;;;;5112682;28;20126;-72
2022/10/30 03:39:28;;;;;;;23.52;11.35;;;;;;;;;;5112428;28;20058;-72
2022/10/30 03:41:54;;;;;;;25.88;12.35;;;;;;;;;;5103270;28;20035;-73
2022/10/30 03:44:20;;;;;;;23.15;10.48;;;;;;;;;;5109535;28;20046;-73
2022/10/30 03:46:46;;;;;;;19.80;11.27;;;;;;;;;;5110510;28;20428;-72
2022/10/30 03:49:12;;;;;;;19.67;11.30;;;;;;;;;;5109496;28;20042;-72
2022/10/30 03:51:38;;;;;;;16.48;10.23;;;;;;;;;;5112906;28;20043;-73
2022/10/30 03:54:04;;;;;;;21.52;10.93;;;;;;;;;;5109332;28;20127;-72
2022/10/30 03:56:30;;;;;;;21.55;11.40;;;;;;;;;;5113154;28;20096;-72
2022/10/30 03:58:56;;;;;;;21.25;11.80;;;;;;;;;;5111290;28;20417;-70
2022/10/30 04:01:22;;;;;;;23.27;11.45;;;;;;;;;;5112471;28;20122;-71
2022/10/30 04:03:48;;;;;;;22.65;11.63;;;;;;;;;;5111512;28;20123;-72
2022/10/30 04:06:14;;;;;;;21.35;11.38;;;;;;;;;;5112022;28;20491;-72
2022/10/30 04:08:40;;;;;;;22.67;11.50;;;;;;;;;;5111269;28;20122;-72
2022/10/30 04:11:06;;;;;;;19.90;11.00;;;;;;;;;;5111430;28;20464;-71
2022/10/30 04:13:32;;;;;;;22.80;11.90;;;;;;;;;;5109570;28;20052;-72
2022/10/30 04:15:58;;;;;;;20.95;11.90;;;;;;;;;;5109876;28;20095;-72
2022/10/30 04:18:24;;;;;;;25.70;12.27;;;;;;;;;;5111643;28;20375;-72
2022/10/30 04:20:50;;;;;;;21.10;11.73;;;;;;;;;;5088176;28;20450;-72
2022/10/30 04:23:17;;;;;;;20.42;11.13;;;;;;;;;;5110369;28;20044;-73
2022/10/30 04:25:43;;;;;;;24.60;12.65;;;;;;;;;;5110908;28;20133;-72
2022/10/30 04:28:09;;;;;;;22.55;12.15;;;;;;;;;;5110513;28;20590;-72
2022/10/30 04:30:37;;;;;;;21.95;11.55;;;;;;;;;;5112211;28;20058;-71
2022/10/30 04:33:04;;;;;;;22.40;12.50;;;;;;;;;;5094841;28;20051;-71
2022/10/30 04:35:31;;;;;;;23.35;11.52;;;;;;;;;;5114224;28;20039;-72
2022/10/30 04:37:58;;;;;;;25.70;11.85;;;;;;;;;;5114788;28;20036;-72
2022/10/30 04:40:25;;;;;;;24.73;12.65;;;;;;;;;;5112892;28;20040;-72
2022/10/30 04:42:52;;;;;;;21.13;12.35;;;;;;;;;;5115369;28;20052;-72
2022/10/30 04:45:18;;;;;;;23.83;12.38;;;;;;;;;;5117205;28;20079;-72
2022/10/30 04:47:44;;;;;;;20.88;11.77;;;;;;;;;;5114571;28;20039;-72
2022/10/30 04:50:10;;;;;;;27.40;12.05;;;;;;;;;;5113159;28;20040;-72
2022/10/30 04:52:36;;;;;;;20.27;10.90;;;;;;;;;;5115597;28;20078;-71
2022/10/30 04:55:03;;;;;;;26.42;12.18;;;;;;;;;;5116094;28;20052;-73
2022/10/30 04:57:30;;;;;;;25.90;12.05;;;;;;;;;;5115549;28;20093;-73
2022/10/30 04:59:56;;;;;;;25.38;12.07;;;;;;;;;;5115187;28;20055;-73
2022/10/30 05:02:22;;;;;;;20.65;11.55;;;;;;;;;;5114626;28;20501;-73
2022/10/30 05:04:48;;;;;;;25.65;12.65;;;;;;;;;;5111994;28;20135;-72
2022/10/30 05:07:15;;;;;;;25.02;12.27;;;;;;;;;;5113388;28;20040;-72
2022/10/30 05:09:41;;;;;;;27.42;11.77;;;;;;;;;;5113318;28;20165;-72
2022/10/30 05:12:07;;;;;;;21.40;12.32;;;;;;;;;;5112149;28;20047;-73
2022/10/30 05:14:33;;;;;;;24.85;12.98;;;;;;;;;;5115567;28;20411;-72
2022/10/30 05:16:59;;;;;;;32.65;12.45;;;;;;;;;;5112992;28;20517;-72
2022/10/30 05:19:25;;;;;;;27.25;13.15;;;;;;;;;;5114483;28;20032;-72
2022/10/30 05:21:51;;;;;;;25.00;12.15;;;;;;;;;;5114890;28;20493;-72
2022/10/30 05:24:18;;;;;;;21.40;12.57;;;;;;;;;;5113616;28;20083;-72
2022/10/30 05:26:45;;;;;;;21.85;12.73;;;;;;;;;;5115809;28;20043;-73
2022/10/30 05:29:11;;;;;;;23.30;12.43;;;;;;;;;;5111754;28;20055;-72
2022/10/30 05:31:37;;;;;;;22.35;12.18;;;;;;;;;;5115085;28;20047;-72
2022/10/30 05:34:03;;;;;;;24.98;12.57;;;;;;;;;;5115702;28;20035;-72
2022/10/30 05:36:29;;;;;;;27.30;13.25;;;;;;;;;;5114155;28;20412;-73
2022/10/30 05:38:55;;;;;;;19.77;12.07;;;;;;;;;;5112981;28;20096;-73
2022/10/30 05:41:21;;;;;;;21.42;13.07;;;;;;;;;;5115563;28;20043;-73
2022/10/30 05:43:47;;;;;;;27.10;14.15;;;;;;;;;;5113957;28;20058;-72
2022/10/30 05:46:13;;;;;;;27.75;13.20;;;;;;;;;;5114804;28;20039;-72
2022/10/30 05:48:39;;;;;;;23.42;13.73;;;;;;;;;;5095534;28;20044;-72
2022/10/30 05:51:07;;;;;;;25.65;13.32;;;;;;;;;;5112861;28;20089;-72
2022/10/30 05:53:33;;;;;;;30.73;13.60;;;;;;;;;;5088073;28;20059;-73
2022/10/30 05:55:59;;;;;;;23.05;13.15;;;;;;;;;;5100059;28;20575;-72
2022/10/30 05:58:25;;;;;;;24.02;13.15;;;;;;;;;;5108973;28;20100;-72
2022/10/30 06:00:51;;;;;;;28.13;14.15;;;;;;;;;;5114713;28;20039;-73
2022/10/30 06:03:18;;;;;;;31.33;15.02;;;;;;;;;;5114456;28;20044;-72
2022/10/30 06:05:44;;;;;;;26.73;14.38;;;;;;;;;;5113076;28;20031;-72
2022/10/30 06:08:10;;;;;;;29.95;14.63;;;;;;;;;;5111023;28;20164;-72
2022/10/30 06:10:36;;;;;;;28.50;14.60;;;;;;;;;;5113111;28;20047;-72
2022/10/30 06:13:04;;;;;;;22.48;13.68;;;;;;;;;;5111949;28;20054;-72
2022/10/30 06:15:30;;;;;;;23.65;13.90;;;;;;;;;;5112481;28;20036;-72
2022/10/30 06:17:56;;;;;;;25.40;14.30;;;;;;;;;;5111189;28;20036;-72
2022/10/30 06:20:23;;;;;;;31.25;14.95;;;;;;;;;;5111608;28;20570;-72
2022/10/30 06:22:56;;;;;;;24.25;14.65;;;;;;;;;;5109835;28;20131;-72
2022/10/30 06:25:23;;;;;;;26.95;14.77;;;;;;;;;;5111882;28;20047;-72
2022/10/30 06:27:49;;;;;;;23.35;14.55;;;;;;;;;;5103971;28;20074;-72
2022/10/30 06:30:15;;;;;;;24.30;15.05;;;;;;;;;;5106761;28;20051;-72
2022/10/30 06:32:41;;;;;;;23.50;14.15;;;;;;;;;;5094707;28;20039;-72
2022/10/30 06:35:07;;;;;;;24.38;15.40;;;;;;;;;;5112936;28;20084;-72
2022/10/30 06:37:33;;;;;;;26.25;15.07;;;;;;;;;;5111477;28;20043;-72
2022/10/30 06:40:00;;;;;;;26.25;15.77;;;;;;;;;;5112524;28;20512;-72
2022/10/30 06:42:26;;;;;;;31.27;14.48;;;;;;;;;;5082444;28;20112;-72
2022/10/30 06:44:53;;;;;;;23.92;14.55;;;;;;;;;;5101972;28;20052;-72
2022/10/30 06:47:19;;;;;;;27.98;15.65;;;;;;;;;;5108855;28;20050;-72
2022/10/30 06:49:45;;;;;;;29.10;13.30;;;;;;;;;;5113755;28;20358;-71
2022/10/30 06:52:11;;;;;;;23.33;13.32;;;;;;;;;;5111609;28;20052;-71
2022/10/30 06:54:37;;;;;;;23.38;14.50;;;;;;;;;;5109277;28;20403;-72
2022/10/30 06:57:03;;;;;;;26.88;14.35;;;;;;;;;;5112288;28;20137;-71
2022/10/30 06:59:29;;;;;;;27.10;13.95;;;;;;;;;;5080238;28;20063;-72
2022/10/30 07:01:55;;;;;;;34.17;15.50;;;;;;;;;;5108410;28;20036;-72
2022/10/30 07:04:21;;;;;;;29.98;14.45;;;;;;;;;;5109148;28;20276;-73
2022/10/30 07:06:47;;;;;;;21.50;13.70;;;;;;;;;;5110213;28;20046;-74
2022/10/30 07:09:13;;;;;;;28.42;15.65;;;;;;;;;;5112630;28;20489;-72
2022/10/30 07:11:44;;;;;;;26.23;14.15;;;;;;;;;;5110993;28;20092;-72
2022/10/30 07:14:10;;;;;;;21.73;14.23;;;;;;;;;;5082358;28;20099;-72
2022/10/30 07:16:36;;;;;;;26.05;15.55;;;;;;;;;;5113086;28;20051;-72
2022/10/30 07:19:02;;;;;;;26.13;16.08;;;;;;;;;;5113359;28;20100;-72
2022/10/30 07:21:29;;;;;;;31.20;15.73;;;;;;;;;;5105889;28;20171;-72
2022/10/30 07:23:55;;;;;;;25.88;15.23;;;;;;;;;;5110640;28;20512;-72
2022/10/30 07:26:21;;;;;;;25.80;15.55;;;;;;;;;;5112567;28;20072;-72
2022/10/30 07:28:47;;;;;;;24.52;14.45;;;;;;;;;;5112335;28;20474;-73
2022/10/30 07:31:13;;;;;;;25.38;13.25;;;;;;;;;;5110324;28;20057;-73
2022/10/30 07:33:39;;;;;;;24.85;13.95;;;;;;;;;;5094625;28;20036;-73
2022/10/30 07:36:05;;;;;;;27.20;15.13;;;;;;;;;;5110990;28;20381;-73
2022/10/30 07:38:31;;;;;;;28.70;14.18;;;;;;;;;;5098765;28;20040;-71
2022/10/30 07:40:57;;;;;;;31.52;14.93;;;;;;;;;;5074321;28;20042;-72
2022/10/30 07:43:23;;;;;;;26.33;14.13;;;;;;;;;;5106450;28;20043;-72
2022/10/30 07:45:50;;;;;;;24.92;14.48;;;;;;;;;;5111224;28;20043;-72
2022/10/30 07:48:16;;;;;;;24.15;13.88;;;;;;;;;;5103162;28;20135;-72
2022/10/30 07:50:42;;;;;;;26.90;13.93;;;;;;;;;;5111724;28;20394;-72
2022/10/30 07:53:08;;;;;;;36.67;19.27;;;;;;;;;;5110902;28;20052;-73
2022/10/30 07:55:34;;;;;;;55.22;29.98;;;;;;;;;;5092413;28;20086;-73
2022/10/30 07:58:00;;;;;;;26.52;15.85;;;;;;;;;;5092134;28;20404;-73
2022/10/30 08:00:26;;;;;;;19.98;12.32;;;;;;;;;;5102158;28;20118;-73
2022/10/30 08:02:55;;;;;;;25.92;14.52;;;;;;;;;;5112443;28;20519;-73
2022/10/30 08:05:21;;;;;;;29.08;14.82;;;;;;;;;;5112852;28;20048;-73
2022/10/30 08:07:47;;;;;;;23.98;13.98;;;;;;;;;;5109162;28;20088;-73
2022/10/30 08:10:13;;;;;;;24.98;13.32;;;;;;;;;;5112038;28;20450;-73
2022/10/30 08:12:40;;;;;;;24.55;13.73;;;;;;;;;;5111116;28;20050;-73
2022/10/30 08:15:07;;;;;;;21.13;13.43;;;;;;;;;;5112337;28;20062;-73
2022/10/30 08:17:33;;;;;;;25.75;15.40;;;;;;;;;;5112576;28;20096;-72
2022/10/30 08:19:59;;;;;;;22.88;13.80;;;;;;;;;;5094297;28;20050;-72
2022/10/30 08:22:25;;;;;;;29.65;15.57;;;;;;;;;;5111492;28;20490;-73
2022/10/30 08:24:51;;;;;;;25.83;14.55;;;;;;;;;;5111194;28;20050;-72
2022/10/30 08:27:17;;;;;;;22.40;14.18;;;;;;;;;;5109415;28;20405;-72
2022/10/30 08:29:43;;;;;;;25.73;14.00;;;;;;;;;;5110246;28;20047;-73
2022/10/30 08:32:09;;;;;;;22.67;13.80;;;;;;;;;;5111747;28;20160;-73
2022/10/30 08:34:35;;;;;;;20.33;12.90;;;;;;;;;;5112129;28;20075;-72
2022/10/30 08:37:01;;;;;;;23.17;13.00;;;;;;;;;;5111678;28;20515;-72
2022/10/30 08:39:27;;;;;;;24.77;13.77;;;;;;;;;;5110737;28;20040;-72
2022/10/30 08:41:53;;;;;;;20.55;13.80;;;;;;;;;;5104335;28;20401;-72
2022/10/30 08:44:19;;;;;;;22.67;12.63;;;;;;;;;;5102299;28;20149;-72
2022/10/30 08:46:45;;;;;;;25.58;13.73;;;;;;;;;;5102959;28;20040;-72
2022/10/30 08:49:11;;;;;;;25.27;14.13;;;;;;;;;;5101153;28;20046;-74
2022/10/30 08:51:37;;;;;;;23.45;13.93;;;;;;;;;;5111874;28;20476;-72
2022/10/30 08:54:03;;;;;;;26.63;14.52;;;;;;;;;;5112510;28;20050;-71
2022/10/30 08:56:29;;;;;;;23.17;14.30;;;;;;;;;;5109861;28;20035;-72
2022/10/30 08:58:55;;;;;;;19.70;13.80;;;;;;;;;;5111563;28;20059;-73
2022/10/30 09:01:21;;;;;;;28.73;14.88;;;;;;;;;;5111348;28;20043;-72
2022/10/30 09:03:47;;;;;;;21.90;14.75;;;;;;;;;;5111506;28;20047;-73
2022/10/30 09:06:13;;;;;;;24.88;15.00;;;;;;;;;;5099742;28;20040;-72
2022/10/30 09:08:39;;;;;;;28.67;15.73;;;;;;;;;;5091542;28;20043;-72
2022/10/30 09:11:05;;;;;;;27.00;16.30;;;;;;;;;;5101202;28;20135;-72
2022/10/30 09:13:31;;;;;;;27.17;15.45;;;;;;;;;;5111717;28;20551;-72
2022/10/30 09:16:01;;;;;;;23.80;15.35;;;;;;;;;;5108550;28;20494;-72
2022/10/30 09:18:27;;;;;;;28.42;15.63;;;;;;;;;;5106906;28;20084;-72
2022/10/30 09:20:53;;;;;;;25.98;15.10;;;;;;;;;;5112535;28;20046;-72
2022/10/30 09:23:19;;;;;;;26.35;16.05;;;;;;;;;;5112628;28;20050;-72
2022/10/30 09:25:45;;;;;;;24.50;14.13;;;;;;;;;;5114527;28;20616;-72
2022/10/30 09:28:11;;;;;;;24.73;14.52;;;;;;;;;;5114552;28;20102;-72
2022/10/30 09:30:38;;;;;;;22.05;15.00;;;;;;;;;;5113568;28;20535;-72
2022/10/30 09:33:04;;;;;;;24.10;15.73;;;;;;;;;;5115250;28;20532;-72
2022/10/30 09:35:31;;;;;;;26.42;15.60;;;;;;;;;;5111153;28;20074;-72
2022/10/30 09:37:57;;;;;;;26.98;14.95;;;;;;;;;;5115269;28;20409;-72
2022/10/30 09:40:23;;;;;;;28.08;16.17;;;;;;;;;;5115042;28;20051;-72
2022/10/30 09:42:50;;;;;;;25.13;15.93;;;;;;;;;;5097017;28;20047;-72
2022/10/30 09:45:19;;;;;;;27.85;15.50;;;;;;;;;;5115277;28;20071;-72
2022/10/30 09:48:04;;;;;;;25.20;15.90;;;;;;;;;;5114982;28;20520;-72
2022/10/30 09:50:52;;;;;;;28.92;15.45;;;;;;;;;;5113652;28;20122;-72
2022/10/30 09:53:37;;;;;;;27.95;16.52;;;;;;;;;;5094550;28;20462;-72
2022/10/30 09:56:08;;;;;;;29.23;15.65;;;;;;;;;;5094776;28;20131;-72
2022/10/30 09:58:34;;;;;;;;;;;;;;;;;;5094783;28;20460;-71
2022/10/30 10:01:11;;;;;;;26.13;15.75;;;;;;;;;;5108984;28;20006;-72
2022/10/30 10:03:56;;;;;;;27.77;15.82;;;;;;;;;;5099912;28;20040;-72
2022/10/30 10:06:23;;;;;;;21.60;14.90;;;;;;;;;;5096319;28;20051;-72
2022/10/30 10:08:52;;;;;;;27.00;15.77;;;;;;;;;;5114708;28;20055;-72
2022/10/30 10:11:24;;;;;;;26.48;16.20;;;;;;;;;;5096277;28;20064;-72
2022/10/30 10:14:09;;;;;;;28.52;15.77;;;;;;;;;;5113256;28;20079;-72
2022/10/30 10:16:38;;;;;;;27.70;16.80;;;;;;;;;;5096136;28;20374;-72
2022/10/30 10:19:15;;;;;;;26.67;16.80;;;;;;;;;;5104260;28;20054;-72
2022/10/30 10:21:46;;;;;;;26.48;17.00;;;;;;;;;;5101977;28;20039;-72
2022/10/30 10:24:18;;;;;;;25.75;15.52;;;;;;;;;;5114197;28;20517;-72
2022/10/30 10:26:49;;;;;;;24.48;15.95;;;;;;;;;;5114219;28;20416;-72
2022/10/30 10:29:15;;;;;;;;;;;;;;;;;;5114113;28;20050;-72
2022/10/30 10:31:41;;;;;;;27.75;16.15;;;;;;;;;;5095813;28;19919;-72
2022/10/30 10:34:10;;;;;;;24.85;15.10;;;;;;;;;;5113222;28;20497;-72
2022/10/30 10:36:36;;;;;;;31.75;15.40;;;;;;;;;;5096006;28;20113;-73
2022/10/30 10:39:02;;;;;;;26.85;15.07;;;;;;;;;;5113955;28;20051;-73
2022/10/30 10:41:37;;;;;;;26.92;14.57;;;;;;;;;;5113997;28;20035;-73
2022/10/30 10:44:06;;;;;;;28.55;15.00;;;;;;;;;;5113560;28;20032;-72
2022/10/30 10:46:58;;;;;;;22.05;14.88;;;;;;;;;;5114351;28;20040;-72
2022/10/30 10:49:43;;;;;;;26.67;15.88;;;;;;;;;;5113108;28;20051;-72
2022/10/30 10:52:11;;;;;;;24.00;14.90;;;;;;;;;;5112941;28;20562;-72
2022/10/30 10:54:45;;;;;;;27.40;14.48;;;;;;;;;;5113689;28;20058;-72
2022/10/30 10:57:25;;;;;;;23.23;15.02;;;;;;;;;;5113068;28;20048;-72
2022/10/30 10:59:53;;;;;;;25.70;15.25;;;;;;;;;;5110493;28;20047;-71
2022/10/30 11:02:22;;;;;;;27.77;15.38;;;;;;;;;;5110700;28;20130;-73
2022/10/30 11:04:51;;;;;;;23.55;15.02;;;;;;;;;;5095426;28;20115;-72
2022/10/30 11:07:24;;;;;;;26.98;15.13;;;;;;;;;;5111891;28;20555;-72
2022/10/30 11:09:52;;;;;;;23.70;14.68;;;;;;;;;;5105957;28;20044;-73
2022/10/30 11:12:22;;;;;;;25.30;15.05;;;;;;;;;;5094296;28;20052;-72
2022/10/30 11:14:48;;;;;;;27.63;14.55;;;;;;;;;;5093274;28;20044;-73
2022/10/30 11:17:22;;;;;;;28.48;14.73;;;;;;;;;;5093181;28;20052;-72
2022/10/30 11:19:50;;;;;;;24.50;13.80;;;;;;;;;;5093974;28;20087;-72
2022/10/30 11:22:25;;;;;;;21.55;13.52;;;;;;;;;;5093031;28;20048;-73
2022/10/30 11:24:51;;;;;;;22.52;13.55;;;;;;;;;;5098120;28;20043;-73
2022/10/30 11:27:24;;;;;;;26.85;13.50;;;;;;;;;;5113195;28;20047;-73
2022/10/30 11:29:56;;;;;;;25.95;13.60;;;;;;;;;;5113329;28;20048;-73
2022/10/30 11:32:25;;;;;;;26.70;14.10;;;;;;;;;;5112805;28;20044;-72
2022/10/30 11:35:11;;;;;;;21.85;14.00;;;;;;;;;;5112992;28;20040;-73
2022/10/30 11:37:38;;;;;;;23.77;14.10;;;;;;;;;;5112714;28;20047;-72
2022/10/30 11:40:10;;;;;;;25.58;14.63;;;;;;;;;;5113044;28;20039;-72
2022/10/30 11:43:06;;;;;;;24.75;13.63;;;;;;;;;;5112431;28;20047;-73
2022/10/30 11:45:33;;;;;;;26.00;13.77;;;;;;;;;;5096289;28;20051;-73
2022/10/30 11:48:00;;;;;;;29.27;14.00;;;;;;;;;;5092573;28;20044;-73
2022/10/30 11:50:27;;;;;;;26.45;13.30;;;;;;;;;;5095039;28;20039;-73
2022/10/30 11:52:55;;;;;;;22.80;13.25;;;;;;;;;;5112624;28;20497;-73
2022/10/30 11:55:35;;;;;;;21.08;13.45;;;;;;;;;;5110877;28;20177;-72
2022/10/30 11:58:01;;;;;;;24.25;12.80;;;;;;;;;;5112436;28;20582;-73
2022/10/30 12:00:32;;;;;;;24.55;12.43;;;;;;;;;;5112752;28;20177;-72
2022/10/30 12:02:59;;;;;;;21.13;11.63;;;;;;;;;;5112640;28;20126;-72
2022/10/30 12:05:36;;;;;;;23.83;11.65;;;;;;;;;;5112075;28;20052;-73
2022/10/30 12:08:08;;;;;;;20.63;11.32;;;;;;;;;;5111591;28;20139;-72
2022/10/30 12:10:54;;;;;;;23.50;10.73;;;;;;;;;;5109398;28;20050;-71
2022/10/30 12:13:22;;;;;;;25.45;11.85;;;;;;;;;;5092903;28;20147;-73
2022/10/30 12:15:49;;;;;;;19.13;10.90;;;;;;;;;;5110405;28;20036;-71
2022/10/30 12:18:18;;;;;;;23.70;12.32;;;;;;;;;;5111719;28;20119;-71
2022/10/30 12:20:45;;;;;;;24.10;11.10;;;;;;;;;;5112070;28;20048;-73
2022/10/30 12:23:20;;;;;;;21.85;11.50;;;;;;;;;;5111455;28;20409;-73
2022/10/30 12:25:47;;;;;;;23.27;11.70;;;;;;;;;;5111770;28;20057;-71
2022/10/30 12:28:24;;;;;;;23.65;11.75;;;;;;;;;;5109359;28;20039;-71
2022/10/30 12:31:00;;;;;;;25.00;11.60;;;;;;;;;;5111320;28;20040;-72
2022/10/30 12:33:35;;;;;;;21.48;11.30;;;;;;;;;;5107428;28;20062;-71
2022/10/30 12:36:05;;;;;;;20.92;11.63;;;;;;;;;;5103121;28;20118;-72
2022/10/30 12:38:37;;;;;;;22.33;11.32;;;;;;;;;;5107629;28;20137;-72
2022/10/30 12:41:24;;;;;;;22.48;11.43;;;;;;;;;;5101071;28;20055;-72
2022/10/30 12:43:59;;;;;;;21.75;10.90;;;;;;;;;;5107067;28;20034;-72
2022/10/30 12:46:32;;;;;;;18.63;10.13;;;;;;;;;;5110122;28;20039;-72
2022/10/30 12:49:12;;;;;;;20.42;9.90;;;;;;;;;;5108042;28;20050;-72
2022/10/30 12:51:43;;;;;;;21.50;10.50;;;;;;;;;;5104913;28;20100;-73
2022/10/30 12:54:17;;;;;;;20.70;10.45;;;;;;;;;;5113648;28;20489;-72
2022/10/30 12:56:45;;;;;;;21.88;10.07;;;;;;;;;;5114540;28;20051;-72
2022/10/30 12:59:28;;;;;;;17.58;9.25;;;;;;;;;;5113849;28;20063;-72
2022/10/30 13:01:56;;;;;;;16.83;9.05;;;;;;;;;;5090618;28;20550;-72
2022/10/30 13:04:24;;;;;;;20.40;8.60;;;;;;;;;;5115327;27;20040;-71
2022/10/30 13:06:53;;;;;;;22.42;8.95;;;;;;;;;;5111135;28;20036;-72
2022/10/30 13:09:22;;;;;;;22.05;8.73;;;;;;;;;;5113202;28;20039;-72
2022/10/30 13:11:52;;;;;;;20.83;8.82;;;;;;;;;;5111723;28;20058;-72
2022/10/30 13:14:34;;;;;;;16.90;8.77;;;;;;;;;;5113880;28;20074;-73
2022/10/30 13:17:00;;;;;;;18.65;9.10;;;;;;;;;;5106301;28;20076;-72
2022/10/30 13:19:27;;;;;;;21.88;9.05;;;;;;;;;;5112414;28;20127;-72
2022/10/30 13:21:53;;;;;;;20.45;10.43;;;;;;;;;;5112314;27;20039;-72
2022/10/30 13:24:37;;;;;;;22.38;11.25;;;;;;;;;;5091120;28;20432;-70
2022/10/30 13:27:07;;;;;;;24.25;11.43;;;;;;;;;;5114271;28;20040;-72
2022/10/30 13:29:40;;;;;;;22.10;11.50;;;;;;;;;;5114663;28;20058;-72
2022/10/30 13:32:27;;;;;;;23.02;11.93;;;;;;;;;;5110969;28;20068;-71
2022/10/30 13:34:57;;;;;;;21.60;12.13;;;;;;;;;;5114009;28;20042;-71
2022/10/30 13:37:41;;;;;;;22.52;12.35;;;;;;;;;;5114245;28;20048;-72
2022/10/30 13:40:22;;;;;;;22.30;11.77;;;;;;;;;;5111846;28;20062;-72
2022/10/30 13:42:48;;;;;;;;;;;;;;;;;;5095351;28;20047;-72
2022/10/30 13:45:24;;;;;;;19.98;11.75;;;;;;;;;;5113570;28;19919;-72
2022/10/30 13:48:05;;;;;;;22.67;11.18;;;;;;;;;;5100447;28;20039;-72
2022/10/30 13:50:47;;;;;;;25.65;12.38;;;;;;;;;;5110257;28;20044;-72
2022/10/30 13:53:16;;;;;;;26.10;12.57;;;;;;;;;;5114211;28;20032;-77
2022/10/30 13:55:43;;;;;;;24.17;11.55;;;;;;;;;;5112683;28;20036;-72
2022/10/30 13:58:15;;;;;;;24.73;11.70;;;;;;;;;;5113610;28;20047;-73
2022/10/30 14:00:49;;;;;;;19.00;12.27;;;;;;;;;;5112227;28;20130;-72
2022/10/30 14:03:24;;;;;;;21.00;10.77;;;;;;;;;;5113889;28;20071;-72
2022/10/30 14:05:53;;;;;;;20.08;11.02;;;;;;;;;;5111712;27;20036;-72
2022/10/30 14:08:24;;;;;;;21.13;11.93;;;;;;;;;;5110931;27;20050;-72
2022/10/30 14:10:52;;;;;;;22.77;11.93;;;;;;;;;;5111980;28;20189;-71
2022/10/30 14:13:26;;;;;;;24.40;12.35;;;;;;;;;;5106321;28;20055;-72
2022/10/30 14:16:06;;;;;;;25.92;13.15;;;;;;;;;;5093182;28;20039;-71
2022/10/30 14:18:52;;;;;;;26.42;13.38;;;;;;;;;;5100078;28;20051;-71
2022/10/30 14:21:36;;;;;;;22.35;13.10;;;;;;;;;;5097291;28;20047;-71
2022/10/30 14:24:04;;;;;;;21.33;12.43;;;;;;;;;;5112084;28;20047;-71
2022/10/30 14:26:30;;;;;;;28.77;13.55;;;;;;;;;;5094016;28;20397;-72
2022/10/30 14:28:56;;;;;;;31.52;14.43;;;;;;;;;;5107221;28;20044;-72